createdAt,value
2019-04-29T00:01:36.384Z,11.50
2019-04-29T00:04:06.015Z,11.50
2019-04-29T00:06:35.567Z,11.50
2019-04-29T00:09:07.783Z,11.50
2019-04-29T00:11:37.349Z,11.50
2019-04-29T00:14:08.103Z,11.50
2019-04-29T00:16:52.959Z,11.50
2019-04-29T00:19:31.071Z,11.50
2019-04-29T00:22:01.172Z,11.40
2019-04-29T00:24:30.881Z,11.40
2019-04-29T00:27:00.355Z,11.40
2019-04-29T00:29:29.966Z,11.40
2019-04-29T00:31:59.513Z,11.40
2019-04-29T00:34:29.015Z,11.50
2019-04-29T00:37:14.909Z,11.50
2019-04-29T00:40:01.878Z,11.50
2019-04-29T00:42:42.652Z,11.50
2019-04-29T00:45:12.559Z,11.50
2019-04-29T00:47:42.067Z,11.40
2019-04-29T00:50:11.711Z,11.40
2019-04-29T00:52:41.205Z,11.50
2019-04-29T00:55:14.091Z,11.50
2019-04-29T00:57:43.515Z,11.50
2019-04-29T01:00:15.928Z,11.50
2019-04-29T01:02:45.583Z,11.50
2019-04-29T01:05:15.007Z,11.50
2019-04-29T01:07:44.566Z,11.50
2019-04-29T01:10:14.769Z,11.50
2019-04-29T01:12:44.224Z,11.50
2019-04-29T01:15:13.942Z,11.50
2019-04-29T01:17:43.469Z,11.50
2019-04-29T01:20:13.162Z,11.50
2019-04-29T01:22:43.412Z,11.50
2019-04-29T01:25:13.905Z,11.50
2019-04-29T01:27:50.080Z,11.50
2019-04-29T01:30:54.158Z,11.50
2019-04-29T01:33:23.794Z,11.50
2019-04-29T01:36:03.986Z,11.60
2019-04-29T01:38:33.391Z,11.60
2019-04-29T01:41:09.896Z,11.60
2019-04-29T01:43:57.486Z,11.50
2019-04-29T01:46:26.956Z,11.60
2019-04-29T01:48:56.663Z,11.60
2019-04-29T01:51:26.082Z,11.60
2019-04-29T01:53:55.550Z,11.60
2019-04-29T01:56:25.229Z,11.60
2019-04-29T01:58:54.651Z,11.60
2019-04-29T02:01:24.111Z,11.50
2019-04-29T02:03:53.532Z,11.50
2019-04-29T02:06:23.147Z,11.60
2019-04-29T02:08:54.427Z,11.50
2019-04-29T02:11:23.961Z,11.50
2019-04-29T02:13:53.820Z,11.40
2019-04-29T02:16:23.247Z,11.40
2019-04-29T02:18:52.731Z,11.50
2019-04-29T02:21:22.301Z,11.50
2019-04-29T02:23:58.166Z,11.50
2019-04-29T02:26:27.634Z,11.50
2019-04-29T02:28:57.071Z,11.50
2019-04-29T02:31:38.442Z,11.50
2019-04-29T02:34:08.393Z,11.50
2019-04-29T02:36:38.552Z,11.50
2019-04-29T02:39:28.020Z,11.40
2019-04-29T02:42:25.652Z,11.40
2019-04-29T02:44:55.945Z,11.40
2019-04-29T02:47:25.652Z,11.40
2019-04-29T02:49:55.127Z,11.40
2019-04-29T02:52:24.556Z,11.40
2019-04-29T02:54:57.475Z,11.40
2019-04-29T02:57:57.788Z,11.40
2019-04-29T03:00:52.334Z,11.40
2019-04-29T03:03:28.088Z,11.50
2019-04-29T03:06:00.626Z,11.40
2019-04-29T03:08:30.044Z,11.50
2019-04-29T03:10:59.465Z,11.50
2019-04-29T03:13:29.112Z,11.50
2019-04-29T03:15:58.544Z,11.50
2019-04-29T03:18:30.565Z,11.50
2019-04-29T03:21:09.453Z,11.50
2019-04-29T03:23:38.974Z,11.50
2019-04-29T03:26:08.746Z,11.50
2019-04-29T03:28:38.265Z,11.50
2019-04-29T03:31:07.734Z,11.50
2019-04-29T03:33:37.319Z,11.50
2019-04-29T03:36:06.811Z,11.50
2019-04-29T03:38:36.344Z,11.50
2019-04-29T03:41:05.845Z,11.60
2019-04-29T03:43:35.506Z,11.60
2019-04-29T03:46:04.978Z,11.60
2019-04-29T03:48:35.319Z,11.60
2019-04-29T03:51:04.943Z,11.70
2019-04-29T03:53:34.478Z,11.70
2019-04-29T03:56:04.742Z,11.80
2019-04-29T03:58:34.144Z,11.70
2019-04-29T04:01:21.205Z,11.80
2019-04-29T04:04:01.233Z,11.80
2019-04-29T04:06:45.017Z,11.80
2019-04-29T04:09:17.344Z,11.90
2019-04-29T04:11:46.775Z,11.90
2019-04-29T04:14:16.176Z,12.00
2019-04-29T04:17:04.495Z,12.00
2019-04-29T04:19:34.819Z,12.00
2019-04-29T04:22:04.331Z,12.10
2019-04-29T04:24:34.683Z,12.20
2019-04-29T04:27:04.359Z,12.20
2019-04-29T04:29:33.814Z,12.20
2019-04-29T04:32:03.307Z,12.20
2019-04-29T04:34:33.636Z,12.20
2019-04-29T04:37:03.137Z,12.10
2019-04-29T04:39:34.135Z,12.20
2019-04-29T04:42:03.615Z,12.30
2019-04-29T04:44:49.363Z,12.30
2019-04-29T04:47:20.992Z,12.30
2019-04-29T04:49:50.551Z,12.40
2019-04-29T04:52:20.096Z,12.30
2019-04-29T04:54:51.429Z,12.30
2019-04-29T04:57:21.079Z,12.40
2019-04-29T04:59:50.566Z,12.50
2019-04-29T05:02:20.626Z,12.60
2019-04-29T05:04:50.129Z,12.60
2019-04-29T05:07:19.650Z,12.60
2019-04-29T05:09:49.365Z,12.50
2019-04-29T05:12:18.978Z,12.40
2019-04-29T05:14:48.553Z,12.30
2019-04-29T05:17:18.066Z,12.30
2019-04-29T05:19:47.529Z,12.40
2019-04-29T05:22:16.948Z,12.50
2019-04-29T05:24:46.603Z,12.50
2019-04-29T05:27:16.027Z,12.60
2019-04-29T05:29:45.583Z,12.60
2019-04-29T05:32:15.338Z,12.70
2019-04-29T05:34:48.271Z,12.90
2019-04-29T05:37:29.720Z,12.90
2019-04-29T05:39:59.174Z,12.90
2019-04-29T05:42:28.827Z,13.10
2019-04-29T05:45:04.887Z,13.20
2019-04-29T05:47:37.367Z,13.30
2019-04-29T05:50:24.873Z,13.20
2019-04-29T05:53:11.380Z,13.50
2019-04-29T05:55:42.079Z,13.80
2019-04-29T05:58:11.864Z,13.90
2019-04-29T06:00:49.977Z,14.10
2019-04-29T06:03:19.416Z,14.10
2019-04-29T06:05:49.249Z,14.00
2019-04-29T06:08:18.733Z,14.00
2019-04-29T06:10:48.162Z,14.10
2019-04-29T06:13:17.932Z,14.50
2019-04-29T06:15:47.472Z,15.00
2019-04-29T06:18:17.643Z,15.00
2019-04-29T06:20:48.197Z,15.00
2019-04-29T06:23:19.008Z,15.00
2019-04-29T06:25:48.897Z,14.80
2019-04-29T06:28:21.661Z,14.60
2019-04-29T06:30:50.226Z,14.50
2019-04-29T06:33:24.376Z,14.30
2019-04-29T06:35:51.747Z,14.30
2019-04-29T06:38:21.323Z,14.50
2019-04-29T06:40:51.080Z,14.90
2019-04-29T06:43:24.381Z,15.50
2019-04-29T06:45:51.628Z,15.70
2019-04-29T06:48:21.166Z,15.80
2019-04-29T06:50:50.828Z,15.60
2019-04-29T06:53:21.275Z,15.30
2019-04-29T06:55:51.370Z,15.10
2019-04-29T06:58:20.787Z,15.00
2019-04-29T07:00:50.965Z,14.90
2019-04-29T07:03:25.061Z,15.10
2019-04-29T07:05:52.020Z,14.90
2019-04-29T07:08:21.456Z,14.90
2019-04-29T07:10:50.888Z,15.00
2019-04-29T07:13:22.768Z,15.50
2019-04-29T07:15:51.926Z,16.50
2019-04-29T07:18:21.424Z,17.50
2019-04-29T07:20:50.913Z,17.50
2019-04-29T07:23:20.619Z,17.40
2019-04-29T07:25:50.063Z,17.00
2019-04-29T07:28:19.701Z,17.80
2019-04-29T07:31:01.045Z,19.20
2019-04-29T07:33:22.656Z,19.70
2019-04-29T07:35:51.476Z,20.40
2019-04-29T07:38:20.889Z,20.20
2019-04-29T07:40:50.332Z,20.70
2019-04-29T07:43:19.785Z,21.20
2019-04-29T07:46:05.424Z,20.60
2019-04-29T07:48:36.968Z,20.90
2019-04-29T07:51:06.354Z,21.20
2019-04-29T07:53:44.832Z,21.20
2019-04-29T07:56:08.248Z,21.10
2019-04-29T07:58:37.806Z,21.10
2019-04-29T08:01:08.694Z,21.40
2019-04-29T08:03:38.284Z,21.50
2019-04-29T08:06:07.783Z,22.30
2019-04-29T08:08:37.687Z,22.30
2019-04-29T08:11:07.094Z,22.70
2019-04-29T08:13:38.380Z,22.50
2019-04-29T08:16:07.863Z,23.00
2019-04-29T08:18:37.431Z,23.70
2019-04-29T08:21:10.172Z,24.00
2019-04-29T08:23:41.190Z,24.30
2019-04-29T08:26:09.219Z,24.30
2019-04-29T08:28:38.693Z,24.40
2019-04-29T08:31:08.405Z,24.50
2019-04-29T08:33:37.906Z,24.70
2019-04-29T08:36:07.444Z,24.30
2019-04-29T08:38:37.112Z,24.80
2019-04-29T08:41:06.534Z,25.60
2019-04-29T08:43:52.435Z,25.60
2019-04-29T08:46:26.812Z,25.30
2019-04-29T08:48:56.383Z,25.30
2019-04-29T08:51:25.947Z,25.50
2019-04-29T08:53:55.428Z,25.90
2019-04-29T08:56:25.047Z,25.50
2019-04-29T08:58:54.563Z,25.60
2019-04-29T09:01:24.691Z,26.30
2019-04-29T09:03:58.015Z,26.10
2019-04-29T09:06:27.682Z,26.30
2019-04-29T09:08:59.535Z,26.40
2019-04-29T09:11:27.421Z,26.90
2019-04-29T09:13:57.280Z,27.00
2019-04-29T09:16:26.714Z,26.90
2019-04-29T09:18:56.186Z,26.80
2019-04-29T09:21:25.865Z,27.20
2019-04-29T09:23:55.324Z,26.90
2019-04-29T09:26:36.337Z,26.90
2019-04-29T09:29:23.911Z,26.80
2019-04-29T09:31:53.434Z,27.40
2019-04-29T09:34:24.802Z,28.00
2019-04-29T09:36:54.032Z,27.80
2019-04-29T09:39:23.728Z,27.70
2019-04-29T09:42:13.125Z,26.70
2019-04-29T09:45:00.663Z,25.50
2019-04-29T09:47:31.196Z,24.30
2019-04-29T09:50:00.652Z,23.80
2019-04-29T09:52:30.118Z,25.60
2019-04-29T09:54:59.716Z,25.50
2019-04-29T09:57:30.593Z,24.50
2019-04-29T10:00:11.897Z,25.80
2019-04-29T10:03:02.807Z,27.10
2019-04-29T10:05:38.182Z,26.80
2019-04-29T10:08:08.007Z,25.90
2019-04-29T10:10:37.524Z,25.10
2019-04-29T10:13:08.625Z,24.80
2019-04-29T10:16:00.275Z,25.80
2019-04-29T10:18:38.292Z,26.70
2019-04-29T10:21:10.269Z,26.30
2019-04-29T10:23:39.885Z,26.70
2019-04-29T10:26:09.670Z,27.50
2019-04-29T10:28:49.344Z,27.60
2019-04-29T10:31:18.934Z,26.70
2019-04-29T10:33:50.311Z,27.30
2019-04-29T10:36:20.568Z,27.10
2019-04-29T10:38:52.204Z,26.60
2019-04-29T10:41:35.988Z,27.20
2019-04-29T10:44:40.036Z,27.10
2019-04-29T10:47:43.473Z,27.70
2019-04-29T10:50:17.375Z,26.60
2019-04-29T10:52:47.159Z,24.90
2019-04-29T10:55:17.554Z,25.50
2019-04-29T10:57:49.745Z,26.30
2019-04-29T11:00:41.325Z,26.30
2019-04-29T11:03:10.863Z,26.70
2019-04-29T11:06:00.066Z,25.60
2019-04-29T11:08:38.255Z,24.60
2019-04-29T11:11:06.781Z,24.30
2019-04-29T11:13:35.351Z,26.20
2019-04-29T11:16:03.758Z,27.00
2019-04-29T11:18:32.336Z,26.60
2019-04-29T11:21:00.699Z,27.30
2019-04-29T11:23:45.726Z,27.10
2019-04-29T11:26:29.663Z,26.10
2019-04-29T11:29:00.160Z,26.60
2019-04-29T11:31:29.624Z,27.00
2019-04-29T11:34:24.384Z,27.70
2019-04-29T11:36:54.054Z,29.20
2019-04-29T11:39:23.617Z,28.80
2019-04-29T11:41:54.725Z,28.70
2019-04-29T11:44:26.461Z,27.60
2019-04-29T11:46:58.822Z,25.90
2019-04-29T11:49:36.561Z,25.20
2019-04-29T11:52:09.879Z,26.50
2019-04-29T11:54:37.526Z,26.70
2019-04-29T11:57:09.608Z,27.20
2019-04-29T11:59:57.267Z,28.50
2019-04-29T12:02:45.778Z,29.20
2019-04-29T12:05:31.703Z,27.10
2019-04-29T12:08:03.093Z,25.80
2019-04-29T12:10:32.862Z,25.40
2019-04-29T12:13:05.089Z,26.10
2019-04-29T12:15:59.581Z,26.30
2019-04-29T12:18:33.995Z,27.10
2019-04-29T12:21:15.650Z,26.20
2019-04-29T12:23:47.803Z,27.10
2019-04-29T12:26:17.061Z,27.00
2019-04-29T12:28:46.501Z,27.70
2019-04-29T12:31:23.268Z,26.50
2019-04-29T12:33:58.436Z,25.60
2019-04-29T12:36:27.892Z,25.20
2019-04-29T12:39:43.149Z,25.00
2019-04-29T12:42:20.885Z,24.10
2019-04-29T12:44:59.953Z,23.40
2019-04-29T12:47:31.898Z,23.00
2019-04-29T12:50:01.402Z,23.70
2019-04-29T12:52:31.058Z,25.20
2019-04-29T12:55:07.055Z,26.00
2019-04-29T12:57:31.624Z,26.90
2019-04-29T13:00:01.127Z,27.40
2019-04-29T13:02:49.540Z,27.40
2019-04-29T13:05:37.248Z,27.20
2019-04-29T13:08:15.384Z,27.40
2019-04-29T13:10:48.049Z,28.10
2019-04-29T13:13:20.118Z,27.20
2019-04-29T13:16:06.781Z,25.70
2019-04-29T13:18:41.301Z,25.00
2019-04-29T13:21:10.892Z,25.00
2019-04-29T13:23:53.536Z,26.50
2019-04-29T13:26:11.531Z,27.20
2019-04-29T13:28:58.995Z,27.60
2019-04-29T13:31:12.494Z,28.20
2019-04-29T13:33:45.962Z,27.90
2019-04-29T13:36:13.900Z,27.40
2019-04-29T13:38:43.605Z,26.70
2019-04-29T13:41:14.367Z,26.80
2019-04-29T13:43:44.575Z,26.40
2019-04-29T13:46:41.800Z,27.00
2019-04-29T13:49:31.480Z,27.90
2019-04-29T13:52:01.361Z,28.20
2019-04-29T13:54:31.298Z,27.90
2019-04-29T13:57:07.547Z,27.90
2019-04-29T14:00:09.254Z,27.90
2019-04-29T14:02:58.410Z,28.10
2019-04-29T14:05:18.509Z,27.20
2019-04-29T14:07:48.673Z,27.20
2019-04-29T14:10:19.323Z,27.30
2019-04-29T14:12:57.008Z,27.20
2019-04-29T14:15:21.277Z,27.20
2019-04-29T14:17:50.740Z,25.50
2019-04-29T14:20:20.233Z,24.50
2019-04-29T14:22:50.223Z,23.10
2019-04-29T14:25:19.683Z,22.00
2019-04-29T14:27:49.322Z,21.20
2019-04-29T14:30:20.995Z,21.00
2019-04-29T14:32:54.306Z,20.50
2019-04-29T14:35:36.265Z,20.20
2019-04-29T14:38:06.107Z,20.30
2019-04-29T14:40:39.058Z,20.20
2019-04-29T14:43:31.400Z,20.10
2019-04-29T14:46:15.690Z,20.10
2019-04-29T14:48:52.940Z,20.20
2019-04-29T14:51:22.749Z,21.80
2019-04-29T14:53:56.709Z,22.20
2019-04-29T14:56:24.028Z,22.00
2019-04-29T14:59:05.978Z,21.90
2019-04-29T15:01:32.236Z,22.00
2019-04-29T15:04:17.195Z,22.10
2019-04-29T15:06:34.576Z,22.20
2019-04-29T15:09:04.435Z,22.30
2019-04-29T15:11:41.145Z,22.40
2019-04-29T15:14:42.240Z,22.80
2019-04-29T15:17:28.131Z,23.00
2019-04-29T15:20:16.532Z,22.90
2019-04-29T15:22:45.982Z,22.50
2019-04-29T15:25:20.542Z,22.30
2019-04-29T15:27:47.749Z,22.30
2019-04-29T15:30:17.175Z,22.40
2019-04-29T15:32:46.753Z,22.10
2019-04-29T15:35:19.799Z,22.10
2019-04-29T15:37:47.369Z,22.00
2019-04-29T15:42:13.338Z,21.80
2019-04-29T15:44:43.673Z,21.10
2019-04-29T15:47:13.121Z,21.10
2019-04-29T15:49:44.943Z,21.10
2019-04-29T15:52:16.017Z,21.10
2019-04-29T15:54:50.437Z,21.20
2019-04-29T15:57:17.193Z,21.20
2019-04-29T15:59:49.192Z,20.70
2019-04-29T16:02:18.065Z,20.60
2019-04-29T16:04:54.761Z,20.50
2019-04-29T16:07:38.178Z,20.30
2019-04-29T16:10:26.845Z,20.10
2019-04-29T16:13:00.044Z,19.90
2019-04-29T16:15:30.839Z,19.80
2019-04-29T16:18:05.113Z,19.90
2019-04-29T16:20:31.469Z,19.80
2019-04-29T16:23:02.126Z,19.80
2019-04-29T16:25:40.327Z,19.90
2019-04-29T16:28:05.654Z,19.90
2019-04-29T16:30:35.189Z,19.80
2019-04-29T16:33:12.942Z,19.70
2019-04-29T16:35:36.054Z,19.60
2019-04-29T16:38:11.188Z,19.60
2019-04-29T16:40:41.389Z,19.60
2019-04-29T16:43:17.155Z,19.60
2019-04-29T16:46:03.482Z,19.40
2019-04-29T16:48:34.469Z,19.40
2019-04-29T16:51:06.552Z,19.20
2019-04-29T16:53:35.083Z,19.10
2019-04-29T16:56:04.654Z,19.10
2019-04-29T16:58:34.470Z,18.80
2019-04-29T17:01:04.005Z,18.80
2019-04-29T17:03:33.787Z,18.80
2019-04-29T17:06:03.243Z,18.70
2019-04-29T17:09:03.501Z,18.70
2019-04-29T17:11:30.792Z,18.60
2019-04-29T17:14:03.538Z,18.40
2019-04-29T17:16:31.531Z,18.30
2019-04-29T17:19:01.184Z,18.20
2019-04-29T17:21:30.763Z,18.10
2019-04-29T17:24:00.195Z,18.10
2019-04-29T17:26:37.958Z,18.00
2019-04-29T17:29:38.953Z,17.90
2019-04-29T17:32:15.607Z,17.90
2019-04-29T17:34:58.895Z,17.80
2019-04-29T17:37:17.008Z,17.80
2019-04-29T17:39:46.738Z,17.80
2019-04-29T17:42:16.194Z,17.80
2019-04-29T17:44:46.517Z,17.70
2019-04-29T17:47:33.863Z,17.70
2019-04-29T17:50:29.626Z,17.70
2019-04-29T17:52:49.937Z,17.70
2019-04-29T17:55:40.717Z,17.60
2019-04-29T17:58:13.138Z,17.30
2019-04-29T18:00:57.250Z,17.30
2019-04-29T18:03:46.264Z,17.20
2019-04-29T18:06:28.317Z,17.10
2019-04-29T18:09:19.662Z,17.00
2019-04-29T18:11:53.489Z,16.90
2019-04-29T18:14:21.425Z,16.80
2019-04-29T18:16:51.030Z,16.70
2019-04-29T18:19:30.815Z,16.60
2019-04-29T18:22:19.618Z,16.40
2019-04-29T18:25:00.882Z,16.20
2019-04-29T18:27:34.367Z,16.00
2019-04-29T18:30:06.935Z,15.90
2019-04-29T18:32:36.429Z,15.80
2019-04-29T18:35:06.395Z,15.80
2019-04-29T18:37:38.474Z,15.80
2019-04-29T18:40:08.198Z,15.70
2019-04-29T18:42:38.473Z,15.70
2019-04-29T18:45:10.641Z,15.50
2019-04-29T18:47:40.084Z,15.40
2019-04-29T18:50:09.912Z,15.20
2019-04-29T18:52:39.372Z,15.10
2019-04-29T18:55:11.761Z,15.00
2019-04-29T18:57:41.365Z,14.80
2019-04-29T19:00:19.056Z,14.60
2019-04-29T19:02:52.308Z,14.40
2019-04-29T19:05:21.163Z,14.30
2019-04-29T19:07:55.124Z,14.20
2019-04-29T19:10:32.264Z,14.10
2019-04-29T19:13:00.129Z,14.00
2019-04-29T19:15:27.000Z,14.00
2019-04-29T19:18:01.369Z,13.90
2019-04-29T19:20:27.747Z,13.70
2019-04-29T19:23:05.731Z,13.60
2019-04-29T19:25:28.498Z,13.60
2019-04-29T19:27:58.139Z,13.60
2019-04-29T19:30:29.292Z,13.50
2019-04-29T19:33:00.356Z,13.40
2019-04-29T19:35:34.603Z,13.30
2019-04-29T19:38:02.112Z,13.30
2019-04-29T19:40:39.040Z,13.20
2019-04-29T19:43:03.525Z,13.10
2019-04-29T19:45:32.949Z,13.00
2019-04-29T19:48:03.302Z,12.90
2019-04-29T19:50:32.999Z,12.90
2019-04-29T19:53:05.026Z,12.80
2019-04-29T19:55:41.695Z,12.80
2019-04-29T19:58:07.139Z,12.70
2019-04-29T20:00:39.057Z,12.60
2019-04-29T20:03:20.375Z,12.50
2019-04-29T20:05:46.465Z,12.50
2019-04-29T20:08:37.569Z,12.40
2019-04-29T20:10:51.158Z,12.40
2019-04-29T20:13:18.172Z,12.30
2019-04-29T20:16:09.674Z,12.30
2019-04-29T20:18:58.378Z,12.20
2019-04-29T20:21:24.716Z,12.20
2019-04-29T20:23:53.071Z,12.10
2019-04-29T20:26:28.406Z,12.10
2019-04-29T20:28:55.599Z,12.10
2019-04-29T20:31:26.046Z,12.00
2019-04-29T20:33:58.482Z,11.90
2019-04-29T20:36:38.367Z,11.80
2019-04-29T20:38:58.601Z,11.80
2019-04-29T20:41:40.162Z,11.80
2019-04-29T20:44:00.830Z,11.70
2019-04-29T20:46:43.182Z,11.70
2019-04-29T20:49:01.458Z,11.70
2019-04-29T20:51:47.902Z,11.60
2019-04-29T20:54:13.008Z,11.60
2019-04-29T20:56:40.144Z,11.60
2019-04-29T20:59:12.778Z,11.60
2019-04-29T21:01:44.735Z,11.60
2019-04-29T21:04:30.642Z,11.50
2019-04-29T21:06:59.072Z,11.60
2019-04-29T21:09:17.444Z,11.50
2019-04-29T21:12:15.682Z,11.40
2019-04-29T21:14:50.296Z,11.40
2019-04-29T21:17:28.737Z,11.40
2019-04-29T21:19:51.059Z,11.40
2019-04-29T21:22:23.637Z,11.40
2019-04-29T21:24:53.934Z,11.20
2019-04-29T21:27:24.148Z,11.20
2019-04-29T21:29:55.409Z,11.20
2019-04-29T21:32:26.203Z,11.10
2019-04-29T21:35:17.033Z,11.10
2019-04-29T21:38:06.720Z,11.10
2019-04-29T21:40:46.082Z,11.10
2019-04-29T21:43:19.757Z,11.00
2019-04-29T21:45:49.365Z,11.00
2019-04-29T21:48:18.987Z,11.00
2019-04-29T21:50:48.428Z,10.80
2019-04-29T21:53:17.908Z,10.70
2019-04-29T21:55:47.781Z,10.60
2019-04-29T21:58:17.177Z,10.60
2019-04-29T22:00:46.637Z,10.50
2019-04-29T22:03:19.765Z,10.50
2019-04-29T22:05:49.216Z,10.50
2019-04-29T22:08:20.740Z,10.40
2019-04-29T22:10:50.504Z,10.40
2019-04-29T22:13:20.024Z,10.40
2019-04-29T22:15:49.457Z,10.40
2019-04-29T22:18:19.792Z,10.30
2019-04-29T22:20:49.274Z,10.30
2019-04-29T22:23:18.963Z,10.30
2019-04-29T22:25:49.301Z,10.30
2019-04-29T22:28:19.923Z,10.30
2019-04-29T22:30:54.193Z,10.20
2019-04-29T22:33:20.747Z,10.20
2019-04-29T22:35:52.042Z,10.20
2019-04-29T22:38:21.479Z,10.20
2019-04-29T22:40:52.206Z,10.20
2019-04-29T22:43:49.510Z,10.20
2019-04-29T22:46:19.316Z,10.20
2019-04-29T22:48:49.314Z,10.20
2019-04-29T22:51:19.116Z,10.10
2019-04-29T22:53:48.822Z,10.10
2019-04-29T22:56:18.710Z,10.20
2019-04-29T22:58:48.164Z,10.10
2019-04-29T23:01:17.823Z,10.10
2019-04-29T23:03:47.485Z,10.10
2019-04-29T23:06:16.948Z,10.20
2019-04-29T23:08:46.504Z,10.20
2019-04-29T23:11:16.171Z,10.20
2019-04-29T23:13:47.614Z,10.20
2019-04-29T23:16:16.885Z,10.20
2019-04-29T23:18:46.710Z,10.20
2019-04-29T23:21:37.379Z,10.40
2019-04-29T23:24:19.049Z,10.50
2019-04-29T23:26:48.570Z,10.70
2019-04-29T23:29:18.008Z,10.90
2019-04-29T23:31:47.634Z,10.90
2019-04-29T23:34:17.098Z,11.00
2019-04-29T23:36:48.965Z,11.10
2019-04-29T23:39:17.630Z,11.20
2019-04-29T23:41:47.055Z,11.20
2019-04-29T23:44:16.782Z,11.30
2019-04-29T23:46:47.513Z,11.30
2019-04-29T23:49:17.165Z,11.40
2019-04-29T23:51:46.618Z,11.40
2019-04-29T23:54:16.042Z,11.40
2019-04-29T23:57:06.109Z,11.40
2019-04-29T23:59:37.338Z,11.30
